Chadron Municipal Airport
KCDR : now visible

Airfield :











YOU CAN JOIN US ON...

 
LOGIN :

Register | Disclaimer

   EN    FR    IT 

 









Legend :    VFR   Marginal VFR   IFR   Intensive IFR   Very Intensive IFR
Visi :
Ceiling :
>= 8 km
>= 3000ft
5 to 8 km
1000 to 3000 ft
1500m to 5 km
500 to 1000 ft
800 to 1500m
200 to 500 ft
< 800m
< 200 ft
Symbols :   Thunderstorms  Fog  Heavy snow  Heavy precipitations  Wind > 20 kt






- Airport Elevation : 3297 ft


KCDR - Chadron Municipal

CURRENT METAR :
  • 200953Z AUTO 21008KT 10SM CLR M17/M19 A3054 RMK AO2 SLP416 T11671189

EXPIRED METARs :
  • 200853Z AUTO 23007KT 10SM CLR M16/M18 A3055 RMK AO2 SLP422 I1000 I3000 T11611178 50002
  • 200753Z AUTO 24007KT 10SM CLR M17/M19 A3056 RMK AO2 SLP425 I1000 T11671189

TAF KCDR
Valid from the 20 at 06:00 until the 21 at 06:00 UTC


200520Z 2006/2106 23006KT P6SM SKC
FM201600 24012KT P6SM SKC
FM210100 22008KT P6SM SKC



MET'MAP, your aeronautical weather chart ! - Copyright ORBIFLY December 2007 - Disclaimer

ORBIFLY MET'MAP TEAM :

Programming & Development : Alexandra Zaïnal
Concept & original design : Baudouin d'Aumeries
Assistance for programming : Marc-Olivier Méhu
Technical & hardware support : Manuel Goepfert

Contact : metmap@orbifly.com




SOURCES & CREDITS :

   NOAA       Earth
Advisory